Time;durP1;ratioP1;P1;durP2;ratioP2;P2;SDS_P1;SDS_P2;PMS_P1;PMS_P2;Temp;Humidity;BMP_temperature;BMP_pressure;BME280_temperature;BME280_humidity;BME280_pressure;Samples;Min_cycle;Max_cycle;Signal;HPM_P1;HPM_P2
2023/01/11 06:12:33;;;;;;;;;;;;;;;7.85;100.00;99508.94;5012329;27;3295519;-68
2023/01/11 06:15:00;;;;;;;;;;;;;;;7.97;100.00;99516.78;5129768;27;814;-68
2023/01/11 06:17:27;;;;;;;;;;;;;;;8.06;100.00;99524.66;5128347;27;1187;-68
2023/01/11 06:19:54;;;;;;;;;;;;;;;8.13;100.00;99527.44;5129556;27;1917;-68
2023/01/11 06:22:20;;;;;;;;;;;;;;;8.21;100.00;99533.72;5129768;27;846;-69
2023/01/11 06:24:47;;;;;;;;;;;;;;;8.25;100.00;99531.75;5129552;27;889;-71
2023/01/11 06:27:15;;;;;;;;;;;;;;;8.25;100.00;99528.22;5129427;27;934;-70
2023/01/11 06:29:42;;;;;;;;;;;;;;;8.23;100.00;99531.34;5129535;27;818;-69
2023/01/11 06:32:08;;;;;;;;;;;;;;;8.28;100.00;99530.97;5129239;27;975;-69
2023/01/11 06:34:35;;;;;;;;;;;;;;;8.29;100.00;99526.25;5129364;27;863;-68
2023/01/11 06:37:02;;;;;;;;;;;;;;;8.36;100.00;99532.56;5129348;27;815;-69
2023/01/11 06:39:28;;;;;;;;;;;;;;;8.45;100.00;99531.38;5129251;27;851;-69
2023/01/11 06:41:55;;;;;;;;;;;;;;;8.54;100.00;99542.78;5129414;27;1885;-71
2023/01/11 06:44:22;;;;;;;;;;;;;;;8.62;100.00;99538.84;5129233;27;854;-70
2023/01/11 06:46:49;;;;;;;;;;;;;;;8.74;100.00;99529.38;5127902;27;1306;-69
2023/01/11 06:49:16;;;;;;;;;;;;;;;8.82;100.00;99532.91;5128972;27;830;-71
2023/01/11 06:51:42;;;;;;;;;;;;;;;8.83;100.00;99529.75;5129101;27;878;-71
2023/01/11 06:54:09;;;;;;;;;;;;;;;8.88;100.00;99534.88;5128963;27;826;-69
2023/01/11 06:56:35;;;;;;;;;;;;;;;8.91;100.00;99533.28;5128936;27;913;-69
2023/01/11 06:59:01;;;;;;;;;;;;;;;8.99;100.00;99535.63;5129063;27;835;-69
2023/01/11 07:01:29;;;;;;;;;;;;;;;9.05;100.00;99541.53;5128849;27;1881;-70
2023/01/11 07:03:56;;;;;;;;;;;;;;;9.10;100.00;99543.06;5128978;27;886;-70
2023/01/11 07:06:23;;;;;;;;;;;;;;;9.18;100.00;99550.94;5129032;27;839;-71
2023/01/11 07:08:50;;;;;;;;;;;;;;;9.18;100.00;99550.94;5128827;27;881;-71
2023/01/11 07:11:16;;;;;;;;;;;;;;;9.19;100.00;99546.97;5128347;27;1204;-71
2023/01/11 07:13:43;;;;;;;;;;;;;;;9.30;100.00;99543.38;5113322;28;1315;-72
2023/01/11 07:16:10;;;;;;;;;;;;;;;9.34;100.00;99544.94;5115273;28;835;-69
2023/01/11 07:18:37;;;;;;;;;;;;;;;9.40;100.00;99542.56;5115124;28;862;-69
2023/01/11 07:21:03;;;;;;;;;;;;;;;9.48;100.00;99560.66;5115179;28;1957;-69
2023/01/11 07:23:30;;;;;;;;;;;;;;;9.47;100.00;99553.56;5115417;28;819;-71
2023/01/11 07:25:57;;;;;;;;;;;;;;;9.47;100.00;99566.56;5113404;28;1171;-71
2023/01/11 07:28:23;;;;;;;;;;;;;;;9.49;100.00;99569.72;5113552;28;1295;-70
2023/01/11 07:30:50;;;;;;;;;;;;;;;9.55;100.00;99576.41;5114484;28;838;-70
2023/01/11 07:33:16;;;;;;;;;;;;;;;9.52;100.00;99586.25;5114450;27;858;-70
2023/01/11 07:35:43;;;;;;;;;;;;;;;9.50;100.00;99585.88;5114514;28;823;-72
2023/01/11 07:38:10;;;;;;;;;;;;;;;9.51;100.00;99590.19;5114407;28;823;-70
2023/01/11 07:40:38;;;;;;;;;;;;;;;9.47;100.00;99597.69;5114291;28;1936;-69
2023/01/11 07:43:13;;;;;;;;;;;;;;;9.47;100.00;99594.94;5114349;28;835;-69
2023/01/11 07:45:40;;;;;;;;;;;;;;;9.49;100.00;99603.59;5114292;28;882;-70
2023/01/11 07:48:09;;;;;;;;;;;;;;;9.53;100.00;99601.63;5114270;28;914;-69
2023/01/11 07:50:37;;;;;;;;;;;;;;;9.61;100.00;99599.63;5114235;28;917;-69
2023/01/11 07:53:04;;;;;;;;;;;;;;;9.70;100.00;99599.19;5114298;28;815;-70
2023/01/11 07:55:31;;;;;;;;;;;;;;;9.81;100.00;99605.44;5114065;27;872;-69
2023/01/11 07:57:57;;;;;;;;;;;;;;;9.91;100.00;99604.59;5114036;28;846;-70
2023/01/11 08:00:24;;;;;;;;;;;;;;;9.95;100.00;99601.84;5113935;28;1885;-70
2023/01/11 08:02:52;;;;;;;;;;;;;;;10.02;100.00;99608.09;5114000;28;862;-71
2023/01/11 08:05:19;;;;;;;;;;;;;;;10.12;100.00;99605.69;5113932;27;886;-73
2023/01/11 08:07:45;;;;;;;;;;;;;;;10.33;100.00;99611.09;5113936;28;814;-69
2023/01/11 08:10:12;;;;;;;;;;;;;;;10.51;100.00;99623.97;5113489;28;1270;-70
2023/01/11 08:15:27;;;;;;;;;;;;;;;10.47;100.00;99626.00;5113758;28;650;-70
2023/01/11 08:17:54;;;;;;;;;;;;;;;10.44;100.00;99621.28;5113684;28;870;-70
2023/01/11 08:20:21;;;;;;;;;;;;;;;10.33;100.00;99624.13;5113586;28;1906;-72
2023/01/11 08:22:47;;;;;;;;;;;;;;;10.13;100.00;99623.81;5113639;28;890;-73
2023/01/11 08:25:14;;;;;;;;;;;;;;;10.06;100.00;99624.63;5111308;28;1313;-72
2023/01/11 08:27:41;;;;;;;;;;;;;;;10.20;100.00;99637.59;5113443;28;869;-70
2023/01/11 08:30:07;;;;;;;;;;;;;;;10.25;100.00;99633.63;5113408;28;862;-70
2023/01/11 08:32:34;;;;;;;;;;;;;;;10.28;100.00;99638.31;5113319;28;838;-70
2023/01/11 08:35:01;;;;;;;;;;;;;;;10.33;100.00;99644.25;5113415;28;846;-70
2023/01/11 08:37:27;;;;;;;;;;;;;;;10.38;100.00;99640.25;5113524;28;841;-72
2023/01/11 08:39:55;;;;;;;;;;;;;;;10.38;100.00;99632.75;5113117;28;1905;-72
2023/01/11 08:42:22;;;;;;;;;;;;;;;10.51;100.00;99638.59;5113266;28;830;-72
2023/01/11 08:44:49;;;;;;;;;;;;;;;10.65;100.00;99642.41;5113154;28;866;-72
2023/01/11 08:47:15;;;;;;;;;;;;;;;10.58;100.00;99641.31;5111852;28;1284;-71
2023/01/11 08:49:42;;;;;;;;;;;;;;;10.55;100.00;99644.09;5113283;28;862;-70
2023/01/11 08:52:12;;;;;;;;;;;;;;;10.69;100.00;99629.38;5111762;28;1383;-70
2023/01/11 08:54:40;;;;;;;;;;;;;;;10.82;100.00;99630.47;5113219;28;865;-70
2023/01/11 08:57:06;;;;;;;;;;;;;;;10.88;100.00;99644.59;5112985;28;839;-70
2023/01/11 08:59:33;;;;;;;;;;;;;;;10.90;100.00;99645.00;5112780;28;887;-71
2023/01/11 09:02:01;;;;;;;;;;;;;;;11.00;100.00;99639.34;5112757;28;1946;-73
2023/01/11 09:04:28;;;;;;;;;;;;;;;11.05;100.00;99643.66;5112962;28;878;-73
2023/01/11 09:06:54;;;;;;;;;;;;;;;10.99;100.00;99640.56;5112855;28;819;-72
2023/01/11 09:09:21;;;;;;;;;;;;;;;10.89;100.00;99632.38;5112780;27;878;-73
2023/01/11 09:11:55;;;;;;;;;;;;;;;10.76;100.00;99630.09;5112435;28;1215;-70
2023/01/11 09:14:23;;;;;;;;;;;;;;;10.88;100.00;99628.03;5112742;27;870;-72
2023/01/11 09:16:51;;;;;;;;;;;;;;;10.99;100.00;99628.72;5112516;28;823;-73
2023/01/11 09:19:17;;;;;;;;;;;;;;;10.97;100.00;99628.34;5111290;28;1181;-70
2023/01/11 09:21:45;;;;;;;;;;;;;;;10.73;100.00;99628.16;5111380;28;1917;-70
2023/01/11 09:24:11;;;;;;;;;;;;;;;10.65;100.00;99640.47;5112639;28;862;-70
2023/01/11 09:26:40;;;;;;;;;;;;;;;10.67;100.00;99643.59;5112549;28;830;-70
2023/01/11 09:29:07;;;;;;;;;;;;;;;10.81;100.00;99635.19;5112515;28;871;-72
2023/01/11 09:31:33;;;;;;;;;;;;;;;10.88;100.00;99647.38;5112495;28;839;-72
2023/01/11 09:34:00;;;;;;;;;;;;;;;10.97;100.00;99628.34;5112475;28;811;-72
2023/01/11 09:36:29;;;;;;;;;;;;;;;11.02;100.00;99625.13;5111150;28;1325;-73
2023/01/11 09:38:56;;;;;;;;;;;;;;;11.08;100.00;99617.97;5112416;28;926;-70
2023/01/11 09:41:24;;;;;;;;;;;;;;;10.98;100.00;99630.69;5112291;28;1944;-74
2023/01/11 09:44:08;;;;;;;;;;;;;;;10.94;100.00;99624.41;5112388;28;882;-70
2023/01/11 09:46:38;;;;;;;;;;;;;;;10.67;100.00;99634.50;5112398;28;891;-72
2023/01/11 09:49:06;;;;;;;;;;;;;;;10.54;100.00;99634.22;5112257;28;858;-72
2023/01/11 09:51:34;;;;;;;;;;;;;;;10.45;100.00;99648.50;5113236;28;792;-74
2023/01/11 09:54:04;;;;;;;;;;;;;;;10.37;100.00;99646.97;5112503;28;815;-73
2023/01/11 09:56:41;;;;;;;;;;;;;;;10.30;100.00;99642.28;5112097;28;826;-72
2023/01/11 09:59:10;;;;;;;;;;;;;;;10.31;100.00;99643.84;5111202;28;1270;-72
2023/01/11 10:01:44;;;;;;;;;;;;;;;10.30;100.00;99644.25;5112160;28;802;-72
2023/01/11 10:04:32;;;;;;;;;;;;;;;10.29;100.00;99629.66;5112336;28;855;-70
2023/01/11 10:06:59;;;;;;;;;;;;;;;10.40;100.00;99637.88;5112436;28;807;-72
2023/01/11 10:09:40;;;;;;;;;;;;;;;10.43;100.00;99639.81;5112253;28;902;-71
2023/01/11 10:12:22;;;;;;;;;;;;;;;10.54;100.00;99656.31;5112001;28;1889;-73
2023/01/11 10:15:08;;;;;;;;;;;;;;;10.56;100.00;99648.41;5112455;28;861;-71
2023/01/11 10:17:37;;;;;;;;;;;;;;;10.64;100.00;99652.69;5110864;28;1170;-73
2023/01/11 10:20:12;;;;;;;;;;;;;;;10.65;100.00;99640.47;5112116;28;870;-73
2023/01/11 10:22:42;;;;;;;;;;;;;;;10.70;100.00;99631.72;5112272;28;913;-71
2023/01/11 10:25:17;;;;;;;;;;;;;;;10.94;100.00;99638.22;5112287;28;831;-71
2023/01/11 10:27:57;;;;;;;;;;;;;;;11.06;100.00;99636.94;5112209;28;877;-71
2023/01/11 10:41:55;;;;;;;;;;;;;;;11.24;100.00;99643.09;5112186;28;771;-71
2023/01/11 10:44:30;;;;;;;;;;;;;;;11.06;100.00;99638.94;5111928;28;893;-71
2023/01/11 10:46:58;;;;;;;;;;;;;;;10.88;100.00;99642.66;5112476;28;910;-73
2023/01/11 10:49:37;;;;;;;;;;;;;;;10.73;100.00;99630.94;5115901;28;902;-73
2023/01/11 10:52:17;;;;;;;;;;;;;;;10.57;100.00;99625.13;5116023;28;1952;-74
2023/01/11 10:54:48;;;;;;;;;;;;;;;10.54;100.00;99629.50;5114597;28;1421;-72
2023/01/11 10:57:33;;;;;;;;;;;;;;;10.53;100.00;99625.16;5114277;28;1320;-72
2023/01/11 11:00:03;;;;;;;;;;;;;;;10.54;100.00;99631.44;5115674;28;819;-73
2023/01/11 11:02:39;;;;;;;;;;;;;;;10.63;100.00;99635.34;5115833;27;843;-74
2023/01/11 11:05:08;;;;;;;;;;;;;;;10.55;100.00;99633.81;5115827;27;887;-73
2023/01/11 11:07:38;;;;;;;;;;;;;;;10.51;100.00;99640.56;5115677;28;855;-75
2023/01/11 11:10:17;;;;;;;;;;;;;;;10.45;100.00;99622.84;5114213;28;1886;-73
2023/01/11 11:12:53;;;;;;;;;;;;;;;10.52;100.00;99633.84;5115440;28;842;-72
2023/01/11 11:15:22;;;;;;;;;;;;;;;10.51;100.00;99637.81;5115503;28;862;-71
2023/01/11 11:17:50;;;;;;;;;;;;;;;10.49;100.00;99632.66;5115377;28;858;-74
2023/01/11 11:20:19;;;;;;;;;;;;;;;10.46;100.00;99632.72;5115230;28;869;-72
2023/01/11 11:22:47;;;;;;;;;;;;;;;10.33;100.00;99624.91;5115100;28;823;-72
2023/01/11 11:25:17;;;;;;;;;;;;;;;10.31;100.00;99635.56;5115344;28;811;-71
2023/01/11 11:27:47;;;;;;;;;;;;;;;10.23;100.00;99643.06;5115022;28;820;-72
2023/01/11 11:30:24;;;;;;;;;;;;;;;10.08;100.00;99632.53;5115068;28;1979;-71
2023/01/11 11:32:56;;;;;;;;;;;;;;;10.02;100.00;99629.41;5114933;28;827;-72
2023/01/11 11:35:41;;;;;;;;;;;;;;;9.93;100.00;99638.13;5115092;28;921;-73
2023/01/11 11:38:19;;;;;;;;;;;;;;;9.87;100.00;99633.41;5115348;28;848;-71
2023/01/11 11:40:54;;;;;;;;;;;;;;;9.80;100.00;99625.97;5115314;28;889;-70
2023/01/11 11:43:25;;;;;;;;;;;;;;;9.69;100.00;99619.72;5113554;28;1402;-71
2023/01/11 11:45:56;;;;;;;;;;;;;;;9.66;100.00;99628.78;5114354;28;897;-70
2023/01/11 11:48:24;;;;;;;;;;;;;;;9.57;100.00;99624.47;5114431;28;791;-69
2023/01/11 11:50:52;;;;;;;;;;;;;;;9.59;100.00;99624.06;5114138;28;1886;-69
2023/01/11 11:53:36;;;;;;;;;;;;;;;9.55;100.00;99624.09;5114218;28;906;-69
2023/01/11 11:56:14;;;;;;;;;;;;;;;9.47;100.00;99633.56;5114049;28;834;-69
2023/01/11 11:58:42;;;;;;;;;;;;;;;9.38;100.00;99620.19;5113931;28;854;-70
2023/01/11 12:01:29;;;;;;;;;;;;;;;9.33;100.00;99622.59;5114105;28;1003;-69
2023/01/11 12:04:14;;;;;;;;;;;;;;;9.31;100.00;99611.16;5113732;28;1025;-68
2023/01/11 12:06:41;;;;;;;;;;;;;;;9.29;100.00;99608.03;5112733;28;1283;-69
2023/01/11 12:09:22;;;;;;;;;;;;;;;9.31;100.00;99609.19;5114103;28;890;-70
2023/01/11 12:11:49;;;;;;;;;;;;;;;9.26;100.00;99615.13;5113483;28;1889;-70
2023/01/11 12:14:17;;;;;;;;;;;;;;;9.17;100.00;99609.22;5112496;28;1354;-68
2023/01/11 12:16:44;;;;;;;;;;;;;;;9.12;100.00;99602.16;5114031;28;814;-70
2023/01/11 12:19:33;;;;;;;;;;;;;;;9.05;100.00;99604.16;5112429;27;1467;-68
2023/01/11 12:22:18;;;;;;;;;;;;;;;8.99;100.00;99599.03;5113700;28;811;-69
2023/01/11 12:24:46;;;;;;;;;;;;;;;8.96;100.00;99591.56;5113364;28;938;-68
2023/01/11 12:27:22;;;;;;;;;;;;;;;8.95;100.00;99595.47;5113624;28;838;-69
2023/01/11 12:29:49;;;;;;;;;;;;;;;8.99;100.00;99589.97;5113435;27;858;-68
2023/01/11 12:32:25;;;;;;;;;;;;;;;9.03;100.00;99595.50;5112059;28;1952;-69
2023/01/11 12:34:52;;;;;;;;;;;;;;;9.13;100.00;99587.19;5113638;28;994;-69
2023/01/11 12:37:37;;;;;;;;;;;;;;;9.23;100.00;99587.56;5112179;28;1435;-68
2023/01/11 12:40:13;;;;;;;;;;;;;;;9.36;100.00;99583.16;5113296;28;934;-70
2023/01/11 12:42:58;;;;;;;;;;;;;;;9.48;100.00;99591.00;5111884;28;1303;-69
2023/01/11 12:45:24;;;;;;;;;;;;;;;9.59;100.00;99588.19;5113142;28;925;-68
2023/01/11 12:48:03;;;;;;;;;;;;;;;9.68;100.00;99588.53;5113039;28;802;-68
2023/01/11 12:50:36;;;;;;;;;;;;;;;9.70;100.00;99591.69;5113003;28;1894;-70
2023/01/11 12:53:12;;;;;;;;;;;;;;;9.69;100.00;99597.63;5111827;28;1320;-70
2023/01/11 12:55:41;;;;;;;;;;;;;;;9.63;100.00;99610.28;5111645;28;1456;-68
2023/01/11 12:58:26;;;;;;;;;;;;;;;9.56;100.00;99600.06;5111854;28;1300;-68
2023/01/11 13:00:56;;;;;;;;;;;;;;;9.50;100.00;99607.94;5112806;28;882;-68
2023/01/11 13:03:42;;;;;;;;;;;;;;;9.46;100.00;99609.94;5112952;28;881;-68
2023/01/11 13:06:20;;;;;;;;;;;;;;;9.43;100.00;99605.22;5112853;28;831;-67
2023/01/11 13:08:53;;;;;;;;;;;;;;;9.39;100.00;99602.47;5111510;28;848;-67
2023/01/11 13:11:33;;;;;;;;;;;;;;;9.40;100.00;99617.81;5111692;28;1897;-66
2023/01/11 13:14:19;;;;;;;;;;;;;;;9.37;100.00;99626.91;5112680;28;910;-66
2023/01/11 13:17:09;;;;;;;;;;;;;;;9.34;100.00;99624.16;5112574;28;823;-66
2023/01/11 13:19:36;;;;;;;;;;;;;;;9.30;100.00;99628.88;5112387;28;1524;-67
2023/01/11 13:22:04;;;;;;;;;;;;;;;9.25;100.00;99635.59;5112467;28;807;-66
2023/01/11 13:24:32;;;;;;;;;;;;;;;9.24;100.00;99636.81;5112317;28;921;-66
2023/01/11 13:27:00;;;;;;;;;;;;;;;9.23;100.00;99645.47;5112459;27;851;-66
2023/01/11 13:29:27;;;;;;;;;;;;;;;9.22;100.00;99647.44;5112329;28;883;-66
2023/01/11 13:31:57;;;;;;;;;;;;;;;9.21;100.00;99651.38;5112336;28;1934;-65
2023/01/11 13:34:50;;;;;;;;;;;;;;;9.18;100.00;99655.72;5112280;28;872;-64
2023/01/11 13:37:20;;;;;;;;;;;;;;;9.06;100.00;99650.59;5110455;28;1079;-66
2023/01/11 13:39:58;;;;;;;;;;;;;;;9.10;100.00;99656.91;5112541;28;810;-66
2023/01/11 13:42:31;;;;;;;;;;;;;;;9.01;100.00;99651.00;5112218;28;873;-62
2023/01/11 13:45:06;;;;;;;;;;;;;;;8.96;100.00;99657.72;5112178;28;815;-62
2023/01/11 13:47:36;;;;;;;;;;;;;;;8.93;100.00;99660.47;5112130;28;823;-63
2023/01/11 13:50:08;;;;;;;;;;;;;;;8.91;100.00;99674.63;5112075;28;1939;-61
2023/01/11 13:52:43;;;;;;;;;;;;;;;8.89;100.00;99690.78;5111943;28;850;-61
2023/01/11 13:55:12;;;;;;;;;;;;;;;8.86;100.00;99690.78;5110966;28;1309;-61
2023/01/11 13:57:57;;;;;;;;;;;;;;;8.84;100.00;99695.91;5112115;28;862;-61
2023/01/11 14:00:44;;;;;;;;;;;;;;;8.82;100.00;99690.00;5112111;28;830;-61
2023/01/11 14:03:29;;;;;;;;;;;;;;;8.81;100.00;99696.69;5111835;28;1042;-61
2023/01/11 14:06:14;;;;;;;;;;;;;;;8.78;100.00;99695.50;5111826;28;874;-61
2023/01/11 14:09:00;;;;;;;;;;;;;;;8.74;100.00;99694.72;5111887;28;913;-61
2023/01/11 14:11:45;;;;;;;;;;;;;;;8.74;100.00;99701.00;5111528;28;1969;-60
2023/01/11 14:14:16;;;;;;;;;;;;;;;8.73;100.00;99709.69;5111817;28;842;-60
2023/01/11 14:16:57;;;;;;;;;;;;;;;8.71;100.00;99710.06;5111842;28;873;-60
2023/01/11 14:19:24;;;;;;;;;;;;;;;8.71;100.00;99710.06;5111823;28;807;-61
2023/01/11 14:21:57;;;;;;;;;;;;;;;8.71;100.00;99706.53;5112175;28;858;-61
2023/01/11 14:24:24;;;;;;;;;;;;;;;8.72;100.00;99708.88;5115878;28;798;-61
2023/01/11 14:26:50;;;;;;;;;;;;;;;8.71;100.00;99706.53;5115849;28;886;-61
2023/01/11 14:29:29;;;;;;;;;;;;;;;8.72;100.00;99695.09;5116085;28;878;-62
2023/01/11 14:32:18;;;;;;;;;;;;;;;8.72;100.00;99697.84;5114506;28;1906;-61
2023/01/11 14:34:45;;;;;;;;;;;;;;;8.68;100.00;99682.50;5116154;28;913;-62
2023/01/11 14:37:24;;;;;;;;;;;;;;;8.64;100.00;99674.25;5115667;28;881;-62
2023/01/11 14:40:13;;;;;;;;;;;;;;;8.64;100.00;99679.75;5115566;28;881;-62
2023/01/11 14:42:52;;;;;;;;;;;;;;;8.66;100.00;99698.63;5115563;28;827;-62
2023/01/11 14:45:30;;;;;;;;;;;;;;;8.65;100.00;99708.88;5115481;28;871;-62
2023/01/11 14:48:09;;;;;;;;;;;;;;;8.65;100.00;99716.34;5115435;28;894;-62
2023/01/11 14:50:47;;;;;;;;;;;;;;;8.66;100.00;99717.91;5115366;28;1951;-63
2023/01/11 14:53:18;;;;;;;;;;;;;;;8.66;100.00;99726.97;5115299;28;826;-62
2023/01/11 14:55:45;;;;;;;;;;;;;;;8.69;100.00;99728.97;5115668;28;910;-62
2023/01/11 14:58:31;;;;;;;;;;;;;;;8.74;100.00;99728.56;5115261;28;902;-63
2023/01/11 15:00:58;;;;;;;;;;;;;;;8.74;100.00;99720.28;5115684;28;787;-63
2023/01/11 15:03:32;;;;;;;;;;;;;;;8.71;100.00;99721.09;5115292;28;895;-62
2023/01/11 15:06:19;;;;;;;;;;;;;;;8.73;100.00;99726.22;5115150;28;795;-62
2023/01/11 15:08:54;;;;;;;;;;;;;;;8.73;100.00;99720.72;5113614;28;1406;-62
2023/01/11 15:11:40;;;;;;;;;;;;;;;8.74;100.00;99719.50;5114666;28;1870;-63
2023/01/11 15:14:18;;;;;;;;;;;;;;;8.74;100.00;99722.25;5115228;28;902;-62
2023/01/11 15:19:35;;;;;;;;;;;;;;;8.70;100.00;99719.50;5115182;28;630;-63
2023/01/11 15:22:04;;;;;;;;;;;;;;;8.71;100.00;99717.56;5114678;28;850;-63
2023/01/11 15:24:34;;;;;;;;;;;;;;;8.70;100.00;99713.22;5114849;28;835;-62
2023/01/11 15:27:01;;;;;;;;;;;;;;;8.63;100.00;99711.22;5114663;28;815;-62
2023/01/11 15:29:30;;;;;;;;;;;;;;;8.66;100.00;99710.44;5114687;28;881;-62
2023/01/11 15:32:05;;;;;;;;;;;;;;;8.65;100.00;99714.38;5114532;28;1973;-62
2023/01/11 15:34:32;;;;;;;;;;;;;;;8.68;100.00;99713.59;5114137;28;842;-63
2023/01/11 15:37:05;;;;;;;;;;;;;;;8.70;100.00;99713.97;5114462;28;802;-62
2023/01/11 15:39:50;;;;;;;;;;;;;;;8.73;100.00;99713.22;5114511;28;825;-63
2023/01/11 15:42:30;;;;;;;;;;;;;;;8.78;100.00;99701.00;5114469;28;823;-64
2023/01/11 15:44:57;;;;;;;;;;;;;;;8.78;100.00;99701.78;5114325;28;843;-62
2023/01/11 15:47:24;;;;;;;;;;;;;;;8.80;100.00;99704.16;5114280;28;836;-63
2023/01/11 15:50:05;;;;;;;;;;;;;;;8.86;100.00;99707.34;5114285;28;823;-64
2023/01/11 15:52:37;;;;;;;;;;;;;;;8.90;100.00;99713.63;5114065;28;1004;-63
2023/01/11 15:55:22;;;;;;;;;;;;;;;8.92;100.00;99711.28;5114154;27;807;-62
2023/01/11 15:57:58;;;;;;;;;;;;;;;8.94;100.00;99717.97;5114110;28;862;-64
2023/01/11 16:00:40;;;;;;;;;;;;;;;8.98;100.00;99718.75;5114081;28;894;-62
2023/01/11 16:03:23;;;;;;;;;;;;;;;8.95;100.00;99716.00;5114151;28;883;-63
2023/01/11 16:06:16;;;;;;;;;;;;;;;9.00;100.00;99712.81;5114018;28;894;-62
2023/01/11 16:09:10;;;;;;;;;;;;;;;8.98;100.00;99712.44;5112192;28;1043;-62
2023/01/11 16:11:56;;;;;;;;;;;;;;;8.99;100.00;99714.03;5110775;28;1874;-63
2023/01/11 16:14:41;;;;;;;;;;;;;;;8.99;100.00;99727.81;5113791;28;851;-62
2023/01/11 16:17:10;;;;;;;;;;;;;;;8.96;100.00;99726.63;5113746;28;835;-63
2023/01/11 16:19:41;;;;;;;;;;;;;;;9.02;100.00;99721.50;5113740;28;831;-63
2023/01/11 16:22:12;;;;;;;;;;;;;;;9.01;100.00;99721.91;5113464;28;882;-64
2023/01/11 16:24:43;;;;;;;;;;;;;;;9.03;100.00;99720.31;5113684;28;827;-63
2023/01/11 16:27:16;;;;;;;;;;;;;;;9.08;100.00;99719.13;5113761;28;843;-63
2023/01/11 16:29:47;;;;;;;;;;;;;;;9.03;100.00;99717.56;5113484;28;815;-63
2023/01/11 16:32:20;;;;;;;;;;;;;;;9.11;100.00;99712.81;5113422;28;1909;-64
2023/01/11 16:34:50;;;;;;;;;;;;;;;9.11;100.00;99708.13;5113639;28;827;-63
2023/01/11 16:37:35;;;;;;;;;;;;;;;9.11;100.00;99707.31;5113343;28;900;-63
2023/01/11 16:40:10;;;;;;;;;;;;;;;9.10;100.00;99700.22;5113535;28;807;-63
2023/01/11 16:43:03;;;;;;;;;;;;;;;9.09;100.00;99704.16;5113292;28;839;-63
2023/01/11 16:45:38;;;;;;;;;;;;;;;9.06;100.00;99693.94;5096138;28;1110;-63
2023/01/11 16:48:14;;;;;;;;;;;;;;;9.04;100.00;99710.84;5113352;28;827;-63
2023/01/11 16:50:44;;;;;;;;;;;;;;;9.01;100.00;99721.91;5112940;28;1951;-64
2023/01/11 16:53:15;;;;;;;;;;;;;;;9.04;100.00;99721.88;5113189;28;859;-64
2023/01/11 16:55:46;;;;;;;;;;;;;;;9.05;100.00;99723.47;5113003;28;827;-65
2023/01/11 16:58:25;;;;;;;;;;;;;;;9.06;100.00;99714.00;5113214;28;863;-64
2023/01/11 17:01:02;;;;;;;;;;;;;;;9.10;100.00;99717.56;5112904;28;859;-64
2023/01/11 17:03:29;;;;;;;;;;;;;;;9.07;100.00;99726.63;5113122;28;824;-64
2023/01/11 17:06:14;;;;;;;;;;;;;;;9.07;100.00;99737.66;5112932;28;819;-63
2023/01/11 17:08:49;;;;;;;;;;;;;;;9.09;100.00;99735.28;5112706;28;839;-65
2023/01/11 17:11:27;;;;;;;;;;;;;;;9.11;100.00;99732.94;5112531;28;1882;-64
2023/01/11 17:14:06;;;;;;;;;;;;;;;9.18;100.00;99738.44;5112992;28;846;-64
2023/01/11 17:16:37;;;;;;;;;;;;;;;9.03;100.00;99734.09;5112622;28;924;-64
2023/01/11 17:19:12;;;;;;;;;;;;;;;8.97;100.00;99736.47;5112588;28;830;-65
2023/01/11 17:21:39;;;;;;;;;;;;;;;8.82;100.00;99734.09;5112609;28;823;-64
2023/01/11 17:24:06;;;;;;;;;;;;;;;8.71;100.00;99743.13;5112844;28;827;-64
2023/01/11 17:26:36;;;;;;;;;;;;;;;8.59;100.00;99740.75;5112512;28;822;-65
2023/01/11 17:29:03;;;;;;;;;;;;;;;8.43;100.00;99756.81;5112463;28;843;-66
2023/01/11 17:31:31;;;;;;;;;;;;;;;8.29;100.00;99761.09;5112272;28;1975;-64
2023/01/11 17:34:09;;;;;;;;;;;;;;;8.14;100.00;99759.47;5112413;28;914;-65
2023/01/11 17:36:36;;;;;;;;;;;;;;;8.03;100.00;99777.91;5112228;28;882;-65
2023/01/11 17:39:04;;;;;;;;;;;;;;;7.92;100.00;99769.59;5112233;28;827;-65
2023/01/11 17:47:06;;;;;;;;;;;;;;;7.80;100.00;99770.69;5112193;28;617;-65
2023/01/11 17:49:33;;;;;;;;;;;;;;;7.80;100.00;99765.19;5112005;28;883;-65
2023/01/11 17:52:20;;;;;;;;;;;;;;;7.70;100.00;99761.22;5111962;28;1942;-67
2023/01/11 17:55:07;;;;;;;;;;;;;;;7.75;100.00;99774.59;5110673;28;1309;-67
2023/01/11 17:57:34;;;;;;;;;;;;;;;7.69;100.00;99783.59;5104311;28;1231;-65
2023/01/11 18:00:17;;;;;;;;;;;;;;;7.64;100.00;99775.69;5112211;28;894;-65
2023/01/11 18:02:44;;;;;;;;;;;;;;;7.70;100.00;99763.97;5112224;28;897;-68
2023/01/11 18:05:16;;;;;;;;;;;;;;;7.61;100.00;99749.75;5111956;28;835;-68
2023/01/11 18:07:49;;;;;;;;;;;;;;;7.51;100.00;99769.72;5111959;28;871;-67
2023/01/11 18:10:24;;;;;;;;;;;;;;;7.45;100.00;99774.00;5111847;28;1885;-66
2023/01/11 18:12:51;;;;;;;;;;;;;;;7.44;100.00;99769.66;5111892;28;882;-68
2023/01/11 18:15:22;;;;;;;;;;;;;;;7.39;100.00;99784.56;5111789;28;851;-65
2023/01/11 18:17:55;;;;;;;;;;;;;;;7.39;100.00;99773.56;5111867;28;799;-67
2023/01/11 18:20:22;;;;;;;;;;;;;;;7.40;100.00;99780.63;5111823;28;819;-68
2023/01/11 18:23:00;;;;;;;;;;;;;;;7.37;100.00;99770.41;5111762;28;854;-68
2023/01/11 18:25:27;;;;;;;;;;;;;;;7.38;100.00;99766.47;5111726;28;836;-68
2023/01/11 18:28:12;;;;;;;;;;;;;;;7.35;100.00;99770.78;5111747;28;807;-68
2023/01/11 18:30:40;;;;;;;;;;;;;;;7.33;100.00;99756.63;5111639;28;1906;-69
2023/01/11 18:33:10;;;;;;;;;;;;;;;7.30;100.00;99759.38;5111903;28;808;-67
2023/01/11 18:35:43;;;;;;;;;;;;;;;7.32;100.00;99768.03;5111675;28;894;-67
2023/01/11 18:38:16;;;;;;;;;;;;;;;7.25;100.00;99774.22;5111582;28;856;-67
2023/01/11 18:40:43;;;;;;;;;;;;;;;7.24;100.00;99763.63;5110299;28;1349;-68
2023/01/11 18:43:11;;;;;;;;;;;;;;;7.21;100.00;99761.63;5110286;28;1303;-68
2023/01/11 18:45:38;;;;;;;;;;;;;;;7.18;100.00;99779.69;5111527;28;803;-68
2023/01/11 18:48:12;;;;;;;;;;;;;;;7.17;100.00;99756.13;5111424;28;772;-67
2023/01/11 18:50:40;;;;;;;;;;;;;;;7.19;100.00;99759.28;5111477;28;1886;-68
2023/01/11 18:53:09;;;;;;;;;;;;;;;7.17;100.00;99756.13;5111492;28;819;-66
2023/01/11 18:55:36;;;;;;;;;;;;;;;7.14;100.00;99765.13;5111510;28;823;-67
2023/01/11 18:58:03;;;;;;;;;;;;;;;7.08;100.00;99759.19;5111465;28;867;-68
2023/01/11 19:00:29;;;;;;;;;;;;;;;7.04;100.00;99768.56;5111299;28;811;-69
2023/01/11 19:02:56;;;;;;;;;;;;;;;6.93;100.00;99783.00;5111434;28;898;-69
2023/01/11 19:05:23;;;;;;;;;;;;;;;6.82;100.00;99778.56;5111488;28;834;-69
2023/01/11 19:07:50;;;;;;;;;;;;;;;6.77;100.00;99778.91;5110327;28;1276;-69
2023/01/11 19:10:18;;;;;;;;;;;;;;;6.73;100.00;99771.41;5115130;28;1947;-68
2023/01/11 19:12:45;;;;;;;;;;;;;;;6.68;100.00;99768.25;5114852;28;1401;-68
2023/01/11 19:15:13;;;;;;;;;;;;;;;6.65;100.00;99768.97;5114922;28;827;-69
2023/01/11 19:17:40;;;;;;;;;;;;;;;6.60;100.00;99761.09;5114907;27;882;-68
2023/01/11 19:20:08;;;;;;;;;;;;;;;6.58;100.00;99763.41;5114919;28;835;-68
2023/01/11 19:22:38;;;;;;;;;;;;;;;6.53;100.00;99762.59;5114898;28;977;-68
2023/01/11 19:25:05;;;;;;;;;;;;;;;6.48;100.00;99751.16;5114762;28;822;-68
2023/01/11 19:27:32;;;;;;;;;;;;;;;6.47;100.00;99753.09;5114698;28;794;-68
2023/01/11 19:29:58;;;;;;;;;;;;;;;6.43;100.00;99746.00;5113511;28;1424;-68
2023/01/11 19:32:25;;;;;;;;;;;;;;;6.37;100.00;99740.03;5114594;28;1914;-66
2023/01/11 19:34:52;;;;;;;;;;;;;;;6.37;100.00;99753.00;5114606;28;894;-68
2023/01/11 19:37:18;;;;;;;;;;;;;;;6.43;100.00;99740.50;5114613;28;791;-65
2023/01/11 19:39:45;;;;;;;;;;;;;;;6.42;100.00;99747.16;5114548;28;827;-62
2023/01/11 19:42:11;;;;;;;;;;;;;;;6.41;100.00;99743.63;5114397;28;811;-66
2023/01/11 19:44:38;;;;;;;;;;;;;;;6.38;100.00;99751.81;5114462;28;819;-67
2023/01/11 19:47:06;;;;;;;;;;;;;;;6.39;100.00;99754.19;5114291;28;887;-65
2023/01/11 19:49:32;;;;;;;;;;;;;;;6.38;100.00;99777.34;5114213;28;842;-66
2023/01/11 19:51:59;;;;;;;;;;;;;;;6.38;100.00;99802.03;5114193;28;1890;-64
2023/01/11 19:54:47;;;;;;;;;;;;;;;6.43;100.00;99798.16;5113023;28;823;-64
2023/01/11 19:57:17;;;;;;;;;;;;;;;6.39;100.00;99800.84;5114203;28;873;-64
2023/01/11 19:59:43;;;;;;;;;;;;;;;6.44;100.00;99797.78;5114089;28;855;-65
2023/01/11 20:02:14;;;;;;;;;;;;;;;6.49;100.00;99805.69;5114036;28;875;-65